Time;durP1;ratioP1;P1;durP2;ratioP2;P2;SDS_P1;SDS_P2;PMS_P1;PMS_P2;Temp;Humidity;BMP_temperature;BMP_pressure;BME280_temperature;BME280_humidity;BME280_pressure;Samples;Min_cycle;Max_cycle;Signal;HPM_P1;HPM_P2
2023/05/08 00:01:03;;;;;;;;;21.33;10.33;;;;;16.88;68.41;101604.84;4982215;28;46242;-72
2023/05/08 00:03:28;;;;;;;;;12.33;11.67;;;;;17.19;68.53;101672.78;4985594;28;44916;-73
2023/05/08 00:05:54;;;;;;;;;11.33;11.33;;;;;17.12;68.48;101663.66;4979104;28;45120;-70
2023/05/08 00:08:20;;;;;;;;;9.00;9.00;;;;;17.07;68.44;101669.88;4987669;28;45111;-74
2023/05/08 00:10:45;;;;;;;;;15.00;11.00;;;;;16.85;68.10;101644.38;4982046;28;45172;-75
2023/05/08 00:13:11;;;;;;;;;11.67;10.67;;;;;16.72;68.20;101643.25;4987911;28;45718;-74
2023/05/08 00:15:36;;;;;;;;;10.67;10.33;;;;;16.87;69.17;101681.28;4987334;28;45156;-71
2023/05/08 00:18:02;;;;;;;;;15.33;12.00;;;;;16.86;68.80;101676.78;4974434;28;44982;-73
2023/05/08 00:20:27;;;;;;;;;12.67;12.67;;;;;16.59;69.06;101637.63;4988824;28;45717;-72
2023/05/08 00:22:53;;;;;;;;;11.67;7.00;;;;;16.62;68.69;101633.19;4988999;28;44984;-72
2023/05/08 00:25:18;;;;;;;;;11.67;11.67;;;;;16.86;69.35;101683.97;5019964;28;45233;-74
2023/05/08 00:27:44;;;;;;;;;10.67;8.67;;;;;16.70;68.63;101651.31;4982511;28;45161;-72
2023/05/08 00:30:09;;;;;;;;;11.33;10.33;;;;;16.73;68.85;101661.25;4976318;28;45305;-72
2023/05/08 00:32:35;;;;;;;;;10.67;9.00;;;;;16.71;68.74;101650.44;4975966;28;45620;-75
2023/05/08 00:35:00;;;;;;;;;13.67;10.33;;;;;16.82;68.81;101679.38;4973338;28;45304;-71
2023/05/08 00:37:26;;;;;;;;;13.00;12.00;;;;;16.66;68.48;101646.72;4983259;28;45369;-70
2023/05/08 00:39:51;;;;;;;;;11.00;10.67;;;;;16.75;68.66;101655.00;4975791;28;45206;-72
2023/05/08 00:42:17;;;;;;;;;15.00;13.00;;;;;16.59;68.60;101634.94;4983862;28;45072;-73
2023/05/08 00:44:42;;;;;;;;;14.33;11.00;;;;;16.74;68.78;101669.34;4986248;28;45107;-74
2023/05/08 00:47:08;;;;;;;;;13.67;11.00;;;;;16.72;68.70;101659.44;4987335;28;45190;-72
2023/05/08 00:49:34;;;;;;;;;10.67;10.00;;;;;16.31;68.61;101593.13;4991299;28;45326;-73
2023/05/08 00:52:03;;;;;;;;;9.00;9.00;;;;;16.66;68.57;101659.34;4987377;28;45173;-74
2023/05/08 00:54:30;;;;;;;;;9.67;9.67;;;;;16.31;69.11;101608.41;4979248;28;45053;-74
2023/05/08 00:56:55;;;;;;;;;18.00;16.00;;;;;16.62;68.52;101663.78;4992251;28;45158;-74
2023/05/08 00:59:21;;;;;;;;;12.67;10.33;;;;;16.17;68.76;101584.84;4978835;27;45149;-78
2023/05/08 01:01:48;;;;;;;;;11.00;11.00;;;;;16.37;69.02;101622.00;4988642;28;45006;-74
2023/05/08 01:04:14;;;;;;;;;17.00;13.33;;;;;16.45;69.14;101633.84;4995020;28;45080;-71
2023/05/08 01:06:39;;;;;;;;;13.67;12.00;;;;;16.61;68.76;101656.56;4985264;28;45645;-74
2023/05/08 01:09:05;;;;;;;;;13.67;11.00;;;;;16.54;68.76;101636.66;4984202;28;46101;-75
2023/05/08 01:11:43;;;;;;;;;17.67;11.67;;;;;16.60;68.57;101654.75;4996509;28;44948;-77
2023/05/08 01:14:20;;;;;;;;;19.00;11.33;;;;;16.44;68.83;101628.41;4982843;28;45388;-72
2023/05/08 01:16:57;;;;;;;;;16.33;11.00;;;;;16.61;68.56;101651.16;4984308;28;45148;-71
2023/05/08 01:19:31;;;;;;;;;13.33;12.00;;;;;16.57;68.50;101658.31;5016012;27;45657;-72
2023/05/08 01:22:08;;;;;;;;;11.67;11.67;;;;;16.20;68.51;101600.13;4983189;28;44995;-72
2023/05/08 01:25:01;;;;;;;;;10.33;10.00;;;;;16.39;68.83;101642.72;4986282;28;45367;-74
2023/05/08 01:27:47;;;;;;;;;10.00;9.00;;;;;16.52;68.08;101665.41;4982201;28;45037;-72
2023/05/08 01:30:58;;;;;;;;;11.67;11.67;;;;;16.30;68.41;101644.34;4990669;28;46038;-75
2023/05/08 01:33:34;;;;;;;;;10.67;10.67;;;;;16.26;68.03;101646.09;4976512;28;45053;-76
2023/05/08 01:36:08;;;;;;;;;11.00;11.00;;;;;16.37;68.22;101673.25;4985978;28;45045;-72
2023/05/08 01:38:46;;;;;;;;;10.00;8.33;;;;;16.22;68.48;101646.94;4989215;28;44981;-76
2023/05/08 01:41:16;;;;;;;;;10.00;10.00;;;;;16.25;68.49;101649.69;4984192;28;45289;-76
2023/05/08 01:44:08;;;;;;;;;14.67;11.67;;;;;16.30;68.55;101661.47;4988904;28;45277;-75
2023/05/08 01:46:33;;;;;;;;;14.33;11.67;;;;;16.32;68.62;101673.16;5002158;28;45417;-76
2023/05/08 01:49:11;;;;;;;;;11.67;11.67;;;;;16.32;68.17;101674.97;5007669;28;45170;-76
2023/05/08 01:51:43;;;;;;;;;12.33;10.67;;;;;16.06;68.67;101632.25;4985656;28;46140;-76
2023/05/08 01:54:14;;;;;;;;;10.67;10.67;;;;;15.48;68.67;101541.34;4990440;28;45155;-76
2023/05/08 01:56:43;;;;;;;;;12.00;12.00;;;;;16.19;68.79;101669.34;4996710;28;45217;-74
2023/05/08 01:59:13;;;;;;;;;11.67;11.67;;;;;16.17;68.95;101671.09;4987942;28;45213;-70
2023/05/08 02:01:40;;;;;;;;;12.00;12.00;;;;;15.77;69.07;101605.69;4979204;28;45221;-71
2023/05/08 02:04:07;;;;;;;;;12.00;12.00;;;;;16.09;69.45;101661.06;4987910;28;45256;-73
2023/05/08 02:06:35;;;;;;;;;18.33;15.67;;;;;16.05;69.67;101665.47;4984438;27;45189;-74
2023/05/08 02:09:01;;;;;;;;;17.67;13.33;;;;;15.99;69.34;101668.97;4988007;28;45165;-70
2023/05/08 02:11:30;;;;;;;;;25.00;15.67;;;;;15.97;70.46;101672.50;4985748;28;45224;-70
2023/05/08 02:13:58;;;;;;;;;17.00;16.33;;;;;15.74;69.37;101646.00;5000410;28;45360;-71
2023/05/08 02:16:25;;;;;;;;;16.00;15.33;;;;;15.93;70.13;101670.66;4975456;28;45195;-68
2023/05/08 02:18:54;;;;;;;;;19.00;15.00;;;;;15.92;69.97;101683.22;4985264;28;45290;-71
2023/05/08 02:21:22;;;;;;;;;17.00;15.00;;;;;15.95;69.88;101691.34;4989662;28;45722;-72
2023/05/08 02:23:49;;;;;;;;;17.33;16.33;;;;;15.93;69.73;101678.72;4985639;28;45151;-69
2023/05/08 02:26:15;;;;;;;;;11.00;11.00;;;;;15.75;69.98;101636.13;4977951;28;45169;-69
2023/05/08 02:28:41;;;;;;;;;20.00;17.00;;;;;15.90;69.47;101666.09;4987808;28;45011;-69
2023/05/08 02:31:09;;;;;;;;;20.00;19.33;;;;;15.53;69.49;101595.31;4984880;28;45363;-70
2023/05/08 02:33:41;;;;;;;;;18.67;18.67;;;;;15.09;69.39;101531.59;4977343;28;45067;-71
2023/05/08 02:36:07;;;;;;;;;17.00;14.33;;;;;15.60;69.15;101637.63;4974761;28;44943;-70
2023/05/08 02:38:36;;;;;;;;;16.33;16.33;;;;;15.32;70.38;101633.47;4985238;28;45052;-73
2023/05/08 02:41:05;;;;;;;;;14.33;14.33;;;;;15.61;70.58;101687.97;4990406;28;45255;-74
2023/05/08 02:43:30;;;;;;;;;14.67;14.67;;;;;15.37;70.71;101650.63;4989010;28;45035;-71
2023/05/08 02:46:13;;;;;;;;;20.00;17.33;;;;;15.64;70.61;101688.03;4982711;28;45694;-71
2023/05/08 02:49:00;;;;;;;;;18.50;18.00;;;;;15.64;70.38;101685.34;4985347;28;45072;-73
2023/05/08 02:51:52;;;;;;;;;20.33;19.00;;;;;15.60;70.29;101694.22;4974511;28;46502;-72
2023/05/08 02:54:25;;;;;;;;;18.00;15.00;;;;;15.28;70.27;101642.38;4989601;27;45158;-68
2023/05/08 02:57:05;;;;;;;;;21.67;18.33;;;;;15.13;70.76;101633.94;4986465;27;45181;-70
2023/05/08 02:59:38;;;;;;;;;16.33;13.67;;;;;14.60;71.06;101548.47;4985706;28;45024;-73
2023/05/08 03:02:14;;;;;;;;;20.00;19.67;;;;;14.95;71.18;101604.84;4980763;28;45486;-69
2023/05/08 03:04:54;;;;;;;;;17.00;15.33;;;;;15.32;71.34;101686.44;4984844;28;45016;-69
2023/05/08 03:07:24;;;;;;;;;16.33;14.33;;;;;15.06;71.26;101630.22;4981673;28;44905;-73
2023/05/08 03:09:57;;;;;;;;;25.33;15.33;;;;;15.29;70.93;101680.09;4987929;28;45078;-74
2023/05/08 03:12:26;;;;;;;;;16.00;16.00;;;;;15.06;71.07;101668.81;4977335;28;45819;-71
2023/05/08 03:14:59;;;;;;;;;19.33;12.67;;;;;15.09;71.61;101682.31;4988967;28;45117;-70
2023/05/08 03:17:27;;;;;;;;;16.00;15.67;;;;;14.92;72.02;101648.75;4989323;28;45110;-73
2023/05/08 03:19:56;;;;;;;;;18.33;15.00;;;;;14.76;71.90;101625.97;4990631;28;44892;-72
2023/05/08 03:22:23;;;;;;;;;11.33;11.33;;;;;15.10;71.73;101680.56;4984509;28;45549;-73
2023/05/08 03:24:51;;;;;;;;;14.00;13.67;;;;;15.04;71.53;101672.34;4990864;28;45046;-72
2023/05/08 03:27:19;;;;;;;;;15.33;13.67;;;;;14.64;71.89;101586.25;4983266;28;45099;-72
2023/05/08 03:29:45;;;;;;;;;16.33;12.67;;;;;14.91;71.35;101623.66;4982897;28;45237;-72
2023/05/08 03:32:12;;;;;;;;;17.67;17.33;;;;;15.25;71.50;101672.81;4985779;27;45636;-76
2023/05/08 03:34:39;;;;;;;;;27.33;20.00;;;;;15.22;71.22;101664.66;4984589;28;45249;-73
2023/05/08 03:37:05;;;;;;;;;16.67;15.00;;;;;15.30;70.97;101673.81;4989531;28;45243;-73
2023/05/08 03:39:30;;;;;;;;;18.00;12.67;;;;;15.29;70.64;101673.78;4972611;28;45296;-69
2023/05/08 03:41:56;;;;;;;;;19.67;13.33;;;;;14.85;71.04;101595.66;4973010;28;46037;-72
2023/05/08 03:44:22;;;;;;;;;15.00;12.67;;;;;15.17;70.44;101654.69;4982669;28;45049;-71
2023/05/08 03:46:51;;;;;;;;;19.00;19.00;;;;;15.33;70.70;101678.38;4991762;28;45104;-71
2023/05/08 03:49:17;;;;;;;;;17.00;15.00;;;;;15.09;70.05;101628.50;4989533;28;45058;-71
2023/05/08 03:51:43;;;;;;;;;16.00;10.67;;;;;15.38;70.40;101681.19;4986026;28;45700;-75
2023/05/08 03:54:09;;;;;;;;;18.00;14.67;;;;;14.91;70.43;101582.34;4982954;28;45044;-72
2023/05/08 03:56:34;;;;;;;;;13.67;11.67;;;;;15.03;70.33;101600.53;5005395;28;45194;-74
2023/05/08 03:59:20;;;;;;;;;19.00;14.00;;;;;15.20;70.23;101630.53;5002068;28;45186;-74
2023/05/08 04:01:57;;;;;;;;;19.33;13.33;;;;;15.34;70.01;101650.56;4980511;28;47354;-74
2023/05/08 04:04:41;;;;;;;;;14.00;14.00;;;;;14.87;69.61;101564.34;4987714;28;45207;-72
2023/05/08 04:07:30;;;;;;;;;17.33;16.67;;;;;15.57;70.08;101677.06;4983851;28;45219;-74
2023/05/08 04:10:06;;;;;;;;;19.00;17.33;;;;;15.42;69.41;101648.94;4990355;28;45373;-75
2023/05/08 04:13:00;;;;;;;;;18.67;16.00;;;;;15.53;69.15;101678.81;4985600;28;45680;-74
2023/05/08 04:15:28;;;;;;;;;20.33;19.67;;;;;15.50;69.32;101669.75;4984341;28;45286;-74
2023/05/08 04:18:13;;;;;;;;;17.33;16.67;;;;;15.52;69.30;101673.38;4987356;28;45920;-70
2023/05/08 04:20:40;;;;;;;;;19.00;17.00;;;;;15.38;69.08;101635.41;4981832;28;45125;-74
2023/05/08 04:23:08;;;;;;;;;16.67;15.00;;;;;15.57;69.39;101669.00;4988062;28;46189;-73
2023/05/08 04:25:36;;;;;;;;;15.00;14.00;;;;;15.58;68.45;101668.13;4987573;28;45067;-74
2023/05/08 04:28:02;;;;;;;;;16.67;16.00;;;;;15.56;68.91;101673.47;4986961;28;45056;-70
2023/05/08 04:30:28;;;;;;;;;14.67;12.67;;;;;15.60;69.01;101669.97;4991767;28;46264;-73
2023/05/08 04:32:54;;;;;;;;;17.00;17.00;;;;;15.04;68.88;101578.16;4980569;28;47351;-71
2023/05/08 04:35:20;;;;;;;;;17.00;13.33;;;;;15.22;68.48;101605.44;4977705;28;45043;-70
2023/05/08 04:37:46;;;;;;;;;14.00;14.00;;;;;15.03;68.39;101568.25;4987086;28;45141;-69
2023/05/08 04:40:12;;;;;;;;;20.00;19.33;;;;;15.54;68.26;101675.25;4997446;27;45132;-72
2023/05/08 04:42:41;;;;;;;;;17.67;13.00;;;;;15.53;68.38;101675.22;4987865;28;45214;-71
2023/05/08 04:45:07;;;;;;;;;18.67;17.00;;;;;15.10;68.16;101600.72;4988127;28;44976;-71
2023/05/08 04:47:33;;;;;;;;;17.33;16.00;;;;;15.12;69.01;101608.81;4991926;28;45326;-71
2023/05/08 04:49:58;;;;;;;;;19.33;15.67;;;;;15.28;68.23;101643.28;4994021;28;45572;-71
2023/05/08 04:52:23;;;;;;;;;18.33;18.00;;;;;15.14;68.69;101612.44;5008253;28;46276;-72
2023/05/08 04:54:49;;;;;;;;;20.00;16.00;;;;;15.41;68.40;101654.28;4986096;28;45335;-76
2023/05/08 04:57:14;;;;;;;;;22.67;21.00;;;;;15.20;68.09;101622.47;4986674;28;45231;-73
2023/05/08 04:59:40;;;;;;;;;27.67;18.67;;;;;14.70;68.17;101526.28;4984041;28;45044;-75
2023/05/08 05:02:08;;;;;;;;;16.33;15.33;;;;;15.27;67.86;101625.28;4984522;28;45618;-74
2023/05/08 05:04:35;;;;;;;;;15.00;12.67;;;;;15.53;67.59;101697.66;4986944;28;44889;-73
2023/05/08 05:07:00;;;;;;;;;15.00;13.67;;;;;15.29;68.69;101644.19;4991394;28;45114;-69
2023/05/08 05:09:26;;;;;;;;;22.33;15.00;;;;;15.21;67.87;101619.81;4991929;28;45028;-69
2023/05/08 05:11:51;;;;;;;;;16.00;13.00;;;;;15.54;67.89;101688.72;4984567;28;46642;-72
2023/05/08 05:14:17;;;;;;;;;18.67;14.00;;;;;15.57;67.44;101688.75;4985414;28;44991;-69
2023/05/08 05:16:42;;;;;;;;;16.00;14.67;;;;;15.59;67.83;101696.88;4983507;28;45337;-69
2023/05/08 05:19:08;;;;;;;;;15.00;14.67;;;;;15.61;67.68;101706.81;4986154;28;45287;-72
2023/05/08 05:21:33;;;;;;;;;16.33;16.00;;;;;15.62;67.75;101711.34;4980569;28;45357;-74
2023/05/08 05:23:58;;;;;;;;;20.00;16.67;;;;;15.36;67.42;101661.38;4980456;28;45186;-74
2023/05/08 05:26:24;;;;;;;;;21.50;20.50;;;;;15.69;67.01;101708.75;4983806;28;45226;-77
2023/05/08 05:28:49;;;;;;;;;16.67;14.00;;;;;14.73;67.22;101545.19;4986441;28;45244;-73
2023/05/08 05:31:14;;;;;;;;;14.67;12.00;;;;;14.95;67.03;101577.94;4983320;28;55752;-72
2023/05/08 05:33:41;;;;;;;;;19.33;17.00;;;;;15.72;67.09;101719.59;4993085;28;45070;-74
2023/05/08 05:36:07;;;;;;;;;21.50;20.75;;;;;15.74;67.33;101720.53;4990424;28;44958;-78
2023/05/08 05:38:32;;;;;;;;;23.33;20.67;;;;;15.71;66.80;101715.09;4988141;28;44966;-73
2023/05/08 05:40:58;;;;;;;;;20.50;20.50;;;;;15.77;67.18;101729.63;4987150;28;46313;-74
2023/05/08 05:43:23;;;;;;;;;40.75;34.75;;;;;15.50;66.83;101677.84;4990075;28;45053;-77
2023/05/08 05:45:49;;;;;;;;;21.33;20.33;;;;;14.63;66.59;101525.25;4995062;28;45193;-72
2023/05/08 05:48:14;;;;;;;;;43.00;34.00;;;;;15.79;66.59;101713.50;4998464;27;45229;-74
2023/05/08 05:50:40;;;;;;;;;30.25;25.50;;;;;15.82;65.72;101730.63;4986846;28;45980;-76
2023/05/08 05:53:05;;;;;;;;;33.75;32.00;;;;;15.72;66.31;101720.50;4988787;28;45236;-73
2023/05/08 05:55:31;;;;;;;;;31.25;26.25;;;;;15.39;65.91;101664.13;4987851;28;44983;-76
2023/05/08 05:57:56;;;;;;;;;55.75;45.50;;;;;15.03;65.89;101596.09;4992282;28;45179;-74
2023/05/08 06:00:21;;;;;;;;;21.00;17.33;;;;;15.75;66.24;101725.94;4991269;28;45579;-72
2023/05/08 06:02:47;;;;;;;;;17.67;15.67;;;;;15.74;66.24;101728.59;4982334;28;45088;-72
2023/05/08 06:05:13;;;;;;;;;19.67;16.00;;;;;15.73;66.33;101737.59;4981670;28;45121;-76
2023/05/08 06:07:38;;;;;;;;;25.67;16.67;;;;;15.63;65.92;101732.00;4982107;28;45269;-76
2023/05/08 06:10:04;;;;;;;;;20.33;15.67;;;;;15.39;66.28;101693.75;4983052;28;45647;-73
2023/05/08 06:12:30;;;;;;;;;15.33;13.67;;;;;15.21;66.21;101702.31;4988856;28;45395;-73
2023/05/08 06:14:55;;;;;;;;;14.33;12.67;;;;;15.41;67.34;101767.38;4984856;28;45159;-72
2023/05/08 06:17:21;;;;;;;;;18.00;16.00;;;;;15.38;67.28;101767.34;4983032;28;45184;-74
2023/05/08 06:19:49;;;;;;;;;16.33;13.67;;;;;15.24;67.88;101743.69;4987183;28;45393;-74
2023/05/08 06:22:19;;;;;;;;;11.33;11.33;;;;;15.22;67.13;101744.53;4987077;28;45722;-75
2023/05/08 06:24:44;;;;;;;;;13.33;11.33;;;;;15.35;67.10;101762.78;4982187;27;45073;-73
2023/05/08 06:27:10;;;;;;;;;12.67;11.67;;;;;15.34;67.22;101776.22;4983664;28;45191;-73
2023/05/08 06:29:36;;;;;;;;;19.33;18.67;;;;;15.32;67.74;101756.44;5012893;28;45762;-72
2023/05/08 06:32:01;;;;;;;;;15.33;12.33;;;;;15.43;66.70;101763.88;4980337;28;45406;-74
2023/05/08 06:34:26;;;;;;;;;14.33;12.67;;;;;15.33;67.00;101744.75;4978700;28;44919;-75
2023/05/08 06:36:52;;;;;;;;;16.67;15.67;;;;;14.98;67.23;101685.66;4974822;28;45248;-73
2023/05/08 06:39:17;;;;;;;;;16.00;12.67;;;;;15.07;67.26;101712.78;4982472;28;45142;-74
2023/05/08 06:41:47;;;;;;;;;11.67;10.67;;;;;14.99;67.05;101703.63;4982584;28;45043;-72
2023/05/08 06:44:12;;;;;;;;;13.00;12.33;;;;;14.81;67.35;101688.84;4974866;28;45177;-73
2023/05/08 06:46:38;;;;;;;;;13.33;13.33;;;;;14.86;67.64;101692.56;4978097;28;45365;-73
2023/05/08 06:49:03;;;;;;;;;23.00;17.00;;;;;15.01;67.28;101704.56;4977745;28;45722;-71
2023/05/08 06:51:30;;;;;;;;;21.00;16.67;;;;;15.29;67.48;101750.13;4978038;28;45266;-72
2023/05/08 06:53:55;;;;;;;;;35.25;29.25;;;;;15.24;67.11;101745.47;4982426;28;45300;-72
2023/05/08 06:56:21;;;;;;;;;31.75;22.50;;;;;15.36;67.29;101758.31;4988143;27;45334;-73
2023/05/08 06:58:47;;;;;;;;;25.33;19.67;;;;;15.09;67.27;101717.31;4985291;28;46372;-74
2023/05/08 07:01:13;;;;;;;;;24.00;18.67;;;;;15.28;67.51;101759.06;4979700;28;45166;-74
2023/05/08 07:03:40;;;;;;;;;16.67;16.67;;;;;15.37;67.35;101770.91;4973907;28;45580;-73
2023/05/08 07:06:09;;;;;;;;;21.67;17.00;;;;;15.21;67.49;101740.94;4962847;28;45730;-71
2023/05/08 07:08:35;;;;;;;;;33.25;26.25;;;;;15.34;67.34;101762.75;4971284;27;47109;-73
2023/05/08 07:11:00;;;;;;;;;18.33;14.00;;;;;15.55;67.38;101773.13;4982987;28;45225;-71
2023/05/08 07:13:26;;;;;;;;;22.67;19.33;;;;;15.30;66.32;101733.06;4988952;27;45344;-74
2023/05/08 07:15:51;;;;;;;;;15.67;15.67;;;;;15.51;66.66;101779.28;4988411;28;45197;-73
2023/05/08 07:18:16;;;;;;;;;14.00;14.00;;;;;15.56;66.53;101796.47;4987027;28;45676;-74
2023/05/08 07:20:42;;;;;;;;;16.33;16.33;;;;;15.17;66.37;101722.00;4981425;28;45176;-74
2023/05/08 07:23:08;;;;;;;;;17.33;17.33;;;;;15.19;66.21;101725.63;4987877;28;45160;-73
2023/05/08 07:25:34;;;;;;;;;21.33;19.33;;;;;15.24;66.00;101738.28;4985239;28;45097;-72
2023/05/08 07:27:59;;;;;;;;;23.00;19.00;;;;;15.56;65.99;101772.22;4973308;28;45378;-73
2023/05/08 07:30:25;;;;;;;;;17.67;15.33;;;;;15.66;65.83;101795.81;4973665;28;45168;-75
2023/05/08 07:32:50;;;;;;;;;13.67;12.33;;;;;15.69;65.62;101789.56;4986092;28;46111;-70
2023/05/08 07:35:17;;;;;;;;;16.00;13.33;;;;;15.52;65.42;101751.50;5001487;27;45187;-71
2023/05/08 07:37:42;;;;;;;;;21.67;16.33;;;;;15.64;64.69;101786.75;4976364;28;45081;-69
2023/05/08 07:40:07;;;;;;;;;16.00;13.67;;;;;15.66;65.43;101796.72;4977499;28;45229;-74
2023/05/08 07:42:43;;;;;;;;;23.33;18.00;;;;;15.67;65.49;101784.16;4985068;28;45529;-73
2023/05/08 07:45:10;;;;;;;;;18.00;15.00;;;;;15.86;65.17;101806.16;4999407;27;45076;-75
2023/05/08 07:47:37;;;;;;;;;16.00;13.67;;;;;15.90;64.65;101814.31;4977603;28;45796;-74
2023/05/08 07:50:03;;;;;;;;;22.00;17.67;;;;;16.00;64.55;101808.28;4985086;28;45085;-75
2023/05/08 07:52:28;;;;;;;;;12.67;11.33;;;;;16.00;64.21;101789.41;4976230;28;45453;-73
2023/05/08 07:54:54;;;;;;;;;19.67;16.67;;;;;16.03;63.61;101775.97;4969589;28;45509;-75
2023/05/08 07:57:19;;;;;;;;;18.00;15.33;;;;;16.20;63.00;101795.19;4971691;28;45532;-71
2023/05/08 07:59:45;;;;;;;;;12.00;12.00;;;;;16.41;62.93;101801.88;4965818;28;46051;-79
2023/05/08 08:02:10;;;;;;;;;12.00;11.33;;;;;16.50;62.75;101806.53;4966739;28;45477;-73
2023/05/08 08:04:36;;;;;;;;;11.00;10.67;;;;;16.61;62.37;101801.34;4971299;28;45591;-78
2023/05/08 08:07:01;;;;;;;;;14.67;13.33;;;;;16.49;62.12;101773.25;4966911;28;46406;-79
2023/05/08 08:09:26;;;;;;;;;16.67;11.67;;;;;16.57;61.94;101787.78;4965494;28;45539;-65
2023/05/08 08:11:52;;;;;;;;;17.33;14.00;;;;;16.65;61.99;101817.63;4971600;28;45620;-64
2023/05/08 08:14:17;;;;;;;;;13.00;13.00;;;;;16.60;62.13;101819.34;4971696;28;45447;-63
2023/05/08 08:16:42;;;;;;;;;26.33;19.00;;;;;16.33;62.07;101769.38;4971862;28;46178;-64
2023/05/08 08:19:09;;;;;;;;;21.67;18.00;;;;;16.39;62.74;101812.63;4971643;28;45510;-63
2023/05/08 08:21:34;;;;;;;;;37.75;34.75;;;;;16.30;63.23;101798.06;4972184;28;45496;-64
2023/05/08 08:24:01;;;;;;;;;25.00;22.00;;;;;16.48;62.85;101797.50;4970561;28;45554;-64
2023/05/08 08:26:26;;;;;;;;;11.00;9.33;;;;;16.65;62.42;101811.34;4971889;28;46023;-63
2023/05/08 08:28:52;;;;;;;;;30.00;23.50;;;;;16.59;62.56;101793.22;4971673;28;45389;-65
2023/05/08 08:31:18;;;;;;;;;20.67;17.67;;;;;16.69;62.10;101803.28;4971610;28;45383;-64
2023/05/08 08:33:44;;;;;;;;;21.67;19.67;;;;;16.69;61.57;101813.19;4959286;28;45485;-64
2023/05/08 08:36:14;;;;;;;;;22.33;20.00;;;;;16.72;62.61;101810.56;4970522;28;45418;-63
2023/05/08 08:38:39;;;;;;;;;18.00;16.33;;;;;16.85;61.25;101818.03;4971324;28;45490;-63
2023/05/08 08:41:04;;;;;;;;;14.33;13.33;;;;;16.86;61.36;101802.72;4971230;28;45694;-64
2023/05/08 08:43:30;;;;;;;;;27.00;23.33;;;;;16.93;61.12;101810.97;4971830;28;45610;-64
2023/05/08 08:45:58;;;;;;;;;11.00;11.00;;;;;17.03;61.45;101813.84;4971239;28;45863;-63
2023/05/08 08:48:27;;;;;;;;;14.33;12.00;;;;;17.07;61.07;101815.69;4970852;28;45456;-64
2023/05/08 08:50:58;;;;;;;;;12.33;11.33;;;;;17.08;60.50;101821.13;4971163;28;45515;-63
2023/05/08 08:53:36;;;;;;;;;16.00;11.67;;;;;16.96;60.67;101812.81;4971624;28;45387;-61
2023/05/08 08:56:07;;;;;;;;;11.67;10.33;;;;;17.01;61.07;101824.59;4970987;28;45478;-62
2023/05/08 08:58:36;;;;;;;;;12.67;11.33;;;;;16.98;60.82;101810.13;4961690;28;45465;-60
2023/05/08 09:01:06;;;;;;;;;12.00;10.00;;;;;17.06;60.99;101819.25;4966971;28;46208;-61
2023/05/08 09:03:31;;;;;;;;;15.33;13.00;;;;;17.09;60.90;101819.31;4968273;28;45311;-61
2023/05/08 09:06:00;;;;;;;;;21.33;13.33;;;;;17.11;60.85;101821.16;4971126;28;45997;-61
2023/05/08 09:08:26;;;;;;;;;36.50;29.75;;;;;17.11;61.08;101825.66;5056006;28;45405;-60
2023/05/08 09:10:54;;;;;;;;;21.33;18.00;;;;;17.06;60.72;101820.19;4964615;28;45262;-60
2023/05/08 09:13:20;;;;;;;;;15.67;14.33;;;;;17.09;61.05;101831.03;4963712;28;45361;-62
2023/05/08 09:15:45;;;;;;;;;12.67;11.00;;;;;17.06;60.43;101828.28;4970676;28;45405;-62
2023/05/08 09:18:11;;;;;;;;;11.67;11.67;;;;;17.01;60.73;101829.06;4970606;28;45585;-60
2023/05/08 09:20:39;;;;;;;;;11.67;11.67;;;;;17.00;60.67;101833.56;4969717;28;61347;-61
2023/05/08 09:23:05;;;;;;;;;15.33;13.67;;;;;16.99;61.47;101837.13;4971254;28;45413;-60
2023/05/08 09:25:45;;;;;;;;;9.67;9.67;;;;;16.92;61.24;101827.13;4973218;28;45446;-62
2023/05/08 09:28:20;;;;;;;;;9.33;9.33;;;;;16.93;61.41;101831.66;4973985;28;45506;-60
2023/05/08 09:30:53;;;;;;;;;12.00;9.67;;;;;16.95;60.95;101820.00;4967782;28;45511;-60
2023/05/08 09:33:20;;;;;;;;;11.33;11.00;;;;;17.00;61.10;101816.47;4974093;28;45405;-61
2023/05/08 09:35:49;;;;;;;;;14.00;9.67;;;;;17.05;60.99;101830.97;4969585;28;45476;-60
2023/05/08 09:38:36;;;;;;;;;10.33;7.67;;;;;17.07;60.86;101830.09;4968366;28;45344;-60
2023/05/08 09:41:07;;;;;;;;;11.67;10.00;;;;;17.07;60.56;101824.69;4973530;28;45410;-61
2023/05/08 09:43:32;;;;;;;;;7.67;7.33;;;;;17.05;60.14;101817.47;4973949;28;45545;-61
2023/05/08 09:46:18;;;;;;;;;10.00;9.00;;;;;17.05;60.10;101814.75;4972251;28;47420;-60
2023/05/08 09:48:44;;;;;;;;;13.67;11.00;;;;;17.09;60.21;101812.13;4969532;28;45316;-59
2023/05/08 09:51:10;;;;;;;;;12.33;9.00;;;;;17.13;60.48;101808.59;4969668;28;45507;-60
2023/05/08 09:53:36;;;;;;;;;15.00;9.67;;;;;17.23;60.08;101806.94;4973756;28;45329;-59
2023/05/08 09:56:01;;;;;;;;;10.33;10.33;;;;;17.31;59.63;101801.69;4973311;28;45457;-61
2023/05/08 09:58:40;;;;;;;;;15.00;11.67;;;;;17.46;59.30;101806.41;4973704;28;45377;-64
2023/05/08 10:01:06;;;;;;;;;16.33;11.33;;;;;17.57;58.98;101798.44;4973524;28;45427;-60
2023/05/08 10:03:48;;;;;;;;;14.00;11.33;;;;;17.45;58.64;101800.06;4973873;28;45294;-60
2023/05/08 10:06:14;;;;;;;;;7.67;7.67;;;;;17.30;58.38;101754.81;4973218;28;46022;-60
2023/05/08 10:08:40;;;;;;;;;16.67;11.33;;;;;17.54;58.63;101784.88;4973062;27;45535;-62
2023/05/08 10:11:16;;;;;;;;;11.33;9.33;;;;;17.63;58.82;101785.91;4972993;28;45331;-61
2023/05/08 10:13:45;;;;;;;;;12.67;10.00;;;;;17.38;57.73;101725.25;4973186;28;45550;-62
2023/05/08 10:16:14;;;;;;;;;10.33;10.33;;;;;17.72;58.04;101779.75;4973106;28;45676;-67
2023/05/08 10:18:47;;;;;;;;;10.33;10.00;;;;;17.73;58.08;101775.25;4971811;28;45514;-65
2023/05/08 10:21:14;;;;;;;;;11.33;11.00;;;;;17.72;57.22;101749.09;4973062;28;45388;-66
2023/05/08 10:23:41;;;;;;;;;8.67;8.33;;;;;17.90;56.89;101765.59;4973445;28;45558;-64
2023/05/08 10:26:12;;;;;;;;;11.33;8.00;;;;;18.07;56.75;101773.91;4972713;27;46531;-63
2023/05/08 10:29:13;;;;;;;;;11.00;9.67;;;;;18.23;56.48;101769.56;4972814;28;45463;-64
2023/05/08 10:31:42;;;;;;;;;11.67;11.67;;;;;18.21;55.99;101764.19;4982693;27;45412;-60
2023/05/08 10:34:17;;;;;;;;;10.00;9.33;;;;;18.21;55.58;101744.31;4962592;28;45476;-61
2023/05/08 10:36:45;;;;;;;;;14.33;11.67;;;;;18.19;54.85;101736.19;4972617;28;45501;-62
2023/05/08 10:39:12;;;;;;;;;11.00;8.67;;;;;18.36;55.38;101747.19;4973463;28;45329;-60
2023/05/08 10:41:38;;;;;;;;;17.33;16.00;;;;;18.57;55.29;101751.88;4972797;28;45426;-63
2023/05/08 10:44:04;;;;;;;;;15.67;15.00;;;;;18.73;54.58;101749.34;4973471;28;45476;-61
2023/05/08 10:46:53;;;;;;;;;15.00;10.00;;;;;18.95;53.58;101751.34;4968552;28;46128;-61
2023/05/08 10:49:37;;;;;;;;;6.00;5.00;;;;;19.15;53.47;101742.47;4966821;28;45451;-61
2023/05/08 10:52:17;;;;;;;;;11.00;8.33;;;;;19.33;52.23;101750.72;4963212;28;45459;-63
2023/05/08 10:55:01;;;;;;;;;16.33;11.67;;;;;19.45;52.43;101741.78;4972935;28;45459;-60
2023/05/08 10:57:26;;;;;;;;;14.67;11.33;;;;;19.57;51.82;101743.63;4969051;28;48017;-62
2023/05/08 10:59:51;;;;;;;;;9.33;7.00;;;;;19.64;51.88;101742.75;4972598;28;45327;-62
2023/05/08 11:02:27;;;;;;;;;9.33;9.33;;;;;19.70;51.44;101720.22;4972275;28;45604;-61
2023/05/08 11:04:52;;;;;;;;;9.33;8.33;;;;;19.75;51.56;101713.03;4971868;28;45490;-61
2023/05/08 11:07:18;;;;;;;;;12.33;8.33;;;;;19.82;51.31;101722.97;4982268;28;45376;-63
2023/05/08 11:09:46;;;;;;;;;10.67;7.00;;;;;19.78;52.13;101717.53;4982408;27;45523;-60
2023/05/08 11:12:17;;;;;;;;;8.33;7.00;;;;;19.86;51.44;101710.34;4976753;28;45446;-60
2023/05/08 11:14:52;;;;;;;;;14.67;11.00;;;;;19.76;51.31;101714.81;4973320;28;45260;-62
2023/05/08 11:17:23;;;;;;;;;8.67;8.67;;;;;19.73;51.46;101709.34;4972091;28;45497;-62
2023/05/08 11:19:57;;;;;;;;;8.00;7.67;;;;;19.76;51.56;101701.25;4972540;28;45381;-63